Main page
METAR-TAF:

METAR-TAF

Airports :

N'Djamena, Chad

N'Djamena International Airport

latitude: 12-08N, longitude: 015-02E, elevation: 295 m

Current weather observation

The report was made 1 hour and 6 minutes ago, at 05:00 UTC
Wind 5 kt from the North/Northeast
Temperature 20°C
Humidity 35%
Pressure 1009 hPa
Visibility 10 km or more
no clouds below 1500 m and no cumulonimbus

METAR: FTTJ 240500Z 02005KT CAVOK 20/04 Q1009 NOSIG

Time: 07:06 (06:06 UTC)

Forecast

The report was made 1 hour and 6 minutes ago, at 05:00 UTC
Forecast valid from 24 at 06 UTC to 25 at 12 UTC
Wind 3 kt from variable directions
Visibility: 4500 m
Becoming
from 24 at 06 UTC to 24 at 08 UTC
Wind 10 kt from the Northeast
Visibility 10 km or more
no clouds below 1500 m and no cumulonimbus

TAF: FTTJ 240500Z 2406/2512 VRB03KT 4500 NSC BECMG 2406/2408 04010KT CAVOK

Weather observations and forecasts of more than 4000 airports (METAR and TAF reports).

The available stations are represented by yellow and red dots on the map.

Hover mouse over dot to see the name of the station.

Then click to see weather observations and forecasts.

To change the map : click on the green buttons with a black cross to zoom in, on the green button with a dash to zoom out, or on the green arrows for adjacent maps.


METAR-TAF: